sensor_id;sensor_type;location;lat;lon;timestamp;P1;durP1;ratioP1;P2;durP2;ratioP2
24517;SDS011;12678;51.336;12.406;2023-05-27T00:01:49;15.95;;;3.95;;
24517;SDS011;12678;51.336;12.406;2023-05-27T00:04:15;11.25;;;3.33;;
24517;SDS011;12678;51.336;12.406;2023-05-27T00:06:41;10.80;;;3.47;;
24517;SDS011;12678;51.336;12.406;2023-05-27T00:09:06;15.13;;;3.38;;
24517;SDS011;12678;51.336;12.406;2023-05-27T00:11:32;8.95;;;3.22;;
24517;SDS011;12678;51.336;12.406;2023-05-27T00:13:58;10.35;;;3.38;;
24517;SDS011;12678;51.336;12.406;2023-05-27T00:16:24;17.33;;;4.20;;
24517;SDS011;12678;51.336;12.406;2023-05-27T00:18:50;10.75;;;3.53;;
24517;SDS011;12678;51.336;12.406;2023-05-27T00:21:17;10.70;;;2.97;;
24517;SDS011;12678;51.336;12.406;2023-05-27T00:23:46;11.50;;;4.55;;
24517;SDS011;12678;51.336;12.406;2023-05-27T00:26:12;17.30;;;3.40;;
24517;SDS011;12678;51.336;12.406;2023-05-27T00:28:38;11.32;;;3.33;;
24517;SDS011;12678;51.336;12.406;2023-05-27T00:31:05;16.30;;;3.22;;
24517;SDS011;12678;51.336;12.406;2023-05-27T00:33:30;10.63;;;3.13;;
24517;SDS011;12678;51.336;12.406;2023-05-27T00:35:56;13.32;;;3.22;;
24517;SDS011;12678;51.336;12.406;2023-05-27T00:38:22;14.70;;;3.38;;
24517;SDS011;12678;51.336;12.406;2023-05-27T00:40:48;10.05;;;3.25;;
24517;SDS011;12678;51.336;12.406;2023-05-27T00:43:17;21.58;;;3.38;;
24517;SDS011;12678;51.336;12.406;2023-05-27T00:45:43;9.65;;;3.17;;
24517;SDS011;12678;51.336;12.406;2023-05-27T00:48:09;14.30;;;4.07;;
24517;SDS011;12678;51.336;12.406;2023-05-27T00:50:35;12.30;;;3.33;;
24517;SDS011;12678;51.336;12.406;2023-05-27T00:53:01;8.32;;;3.60;;
24517;SDS011;12678;51.336;12.406;2023-05-27T00:55:28;10.80;;;3.53;;
24517;SDS011;12678;51.336;12.406;2023-05-27T00:57:53;13.65;;;4.22;;
24517;SDS011;12678;51.336;12.406;2023-05-27T01:00:20;15.00;;;3.55;;
24517;SDS011;12678;51.336;12.406;2023-05-27T01:02:46;9.50;;;3.90;;
24517;SDS011;12678;51.336;12.406;2023-05-27T01:05:13;12.50;;;3.85;;
24517;SDS011;12678;51.336;12.406;2023-05-27T01:15:47;9.85;;;4.20;;
24517;SDS011;12678;51.336;12.406;2023-05-27T01:18:16;11.38;;;3.83;;
24517;SDS011;12678;51.336;12.406;2023-05-27T01:20:44;19.30;;;3.67;;
24517;SDS011;12678;51.336;12.406;2023-05-27T01:23:13;15.98;;;4.20;;
24517;SDS011;12678;51.336;12.406;2023-05-27T01:25:38;14.10;;;3.58;;
24517;SDS011;12678;51.336;12.406;2023-05-27T01:28:04;17.15;;;3.97;;
24517;SDS011;12678;51.336;12.406;2023-05-27T01:30:30;17.58;;;3.88;;
24517;SDS011;12678;51.336;12.406;2023-05-27T01:38:10;13.35;;;3.83;;
24517;SDS011;12678;51.336;12.406;2023-05-27T01:40:40;14.35;;;3.78;;
24517;SDS011;12678;51.336;12.406;2023-05-27T01:43:07;11.38;;;3.45;;
24517;SDS011;12678;51.336;12.406;2023-05-27T01:45:34;9.27;;;4.15;;
24517;SDS011;12678;51.336;12.406;2023-05-27T01:48:01;13.18;;;3.60;;
24517;SDS011;12678;51.336;12.406;2023-05-27T01:50:27;14.88;;;3.88;;
24517;SDS011;12678;51.336;12.406;2023-05-27T01:52:55;17.95;;;4.72;;
24517;SDS011;12678;51.336;12.406;2023-05-27T01:55:21;9.82;;;3.30;;
24517;SDS011;12678;51.336;12.406;2023-05-27T01:57:47;17.10;;;3.92;;
24517;SDS011;12678;51.336;12.406;2023-05-27T02:00:13;6.32;;;2.90;;
24517;SDS011;12678;51.336;12.406;2023-05-27T02:02:40;9.15;;;3.17;;
24517;SDS011;12678;51.336;12.406;2023-05-27T02:05:08;17.73;;;4.00;;
24517;SDS011;12678;51.336;12.406;2023-05-27T02:07:34;7.53;;;2.83;;
24517;SDS011;12678;51.336;12.406;2023-05-27T02:10:01;13.00;;;3.90;;
24517;SDS011;12678;51.336;12.406;2023-05-27T02:12:27;12.07;;;4.05;;
24517;SDS011;12678;51.336;12.406;2023-05-27T02:14:52;13.27;;;4.47;;
24517;SDS011;12678;51.336;12.406;2023-05-27T02:17:18;18.42;;;5.97;;
24517;SDS011;12678;51.336;12.406;2023-05-27T02:19:43;17.83;;;7.00;;
24517;SDS011;12678;51.336;12.406;2023-05-27T02:22:10;13.20;;;5.55;;
24517;SDS011;12678;51.336;12.406;2023-05-27T02:24:35;24.88;;;9.40;;
24517;SDS011;12678;51.336;12.406;2023-05-27T02:27:02;22.90;;;9.45;;
24517;SDS011;12678;51.336;12.406;2023-05-27T02:29:28;34.20;;;17.05;;
24517;SDS011;12678;51.336;12.406;2023-05-27T02:31:53;59.05;;;30.13;;
24517;SDS011;12678;51.336;12.406;2023-05-27T02:34:19;41.42;;;20.60;;
24517;SDS011;12678;51.336;12.406;2023-05-27T02:36:45;42.42;;;22.52;;
24517;SDS011;12678;51.336;12.406;2023-05-27T02:39:11;35.47;;;17.15;;
24517;SDS011;12678;51.336;12.406;2023-05-27T02:41:36;26.42;;;11.60;;
24517;SDS011;12678;51.336;12.406;2023-05-27T02:44:02;39.20;;;16.55;;
24517;SDS011;12678;51.336;12.406;2023-05-27T02:46:28;29.17;;;13.93;;
24517;SDS011;12678;51.336;12.406;2023-05-27T02:48:53;26.52;;;5.40;;
24517;SDS011;12678;51.336;12.406;2023-05-27T02:51:20;14.07;;;4.72;;
24517;SDS011;12678;51.336;12.406;2023-05-27T02:53:46;39.20;;;19.33;;
24517;SDS011;12678;51.336;12.406;2023-05-27T02:56:12;25.00;;;12.02;;
24517;SDS011;12678;51.336;12.406;2023-05-27T02:58:37;44.70;;;18.08;;
24517;SDS011;12678;51.336;12.406;2023-05-27T03:01:03;11.27;;;5.05;;
24517;SDS011;12678;51.336;12.406;2023-05-27T03:03:28;27.90;;;11.30;;
24517;SDS011;12678;51.336;12.406;2023-05-27T03:05:54;23.55;;;7.90;;
24517;SDS011;12678;51.336;12.406;2023-05-27T03:08:21;24.98;;;11.10;;
24517;SDS011;12678;51.336;12.406;2023-05-27T03:10:46;43.63;;;20.77;;
24517;SDS011;12678;51.336;12.406;2023-05-27T03:13:12;17.33;;;7.78;;
24517;SDS011;12678;51.336;12.406;2023-05-27T03:15:38;17.17;;;6.47;;
24517;SDS011;12678;51.336;12.406;2023-05-27T03:18:04;21.50;;;9.45;;
24517;SDS011;12678;51.336;12.406;2023-05-27T03:20:30;17.10;;;5.90;;
24517;SDS011;12678;51.336;12.406;2023-05-27T03:22:55;25.77;;;7.75;;
24517;SDS011;12678;51.336;12.406;2023-05-27T03:25:21;34.20;;;11.77;;
24517;SDS011;12678;51.336;12.406;2023-05-27T03:27:48;13.50;;;4.35;;
24517;SDS011;12678;51.336;12.406;2023-05-27T03:30:13;15.48;;;5.93;;
24517;SDS011;12678;51.336;12.406;2023-05-27T03:32:39;11.13;;;4.75;;
24517;SDS011;12678;51.336;12.406;2023-05-27T03:35:05;21.60;;;9.32;;
24517;SDS011;12678;51.336;12.406;2023-05-27T03:37:31;15.73;;;5.13;;
24517;SDS011;12678;51.336;12.406;2023-05-27T03:39:56;38.25;;;13.60;;
24517;SDS011;12678;51.336;12.406;2023-05-27T03:42:22;26.05;;;13.48;;
24517;SDS011;12678;51.336;12.406;2023-05-27T03:44:48;11.57;;;5.10;;
24517;SDS011;12678;51.336;12.406;2023-05-27T03:47:14;21.65;;;6.18;;
24517;SDS011;12678;51.336;12.406;2023-05-27T03:49:42;11.70;;;4.22;;
24517;SDS011;12678;51.336;12.406;2023-05-27T03:52:08;12.25;;;4.15;;
24517;SDS011;12678;51.336;12.406;2023-05-27T03:54:36;12.77;;;6.03;;
24517;SDS011;12678;51.336;12.406;2023-05-27T03:57:02;17.80;;;5.93;;
24517;SDS011;12678;51.336;12.406;2023-05-27T03:59:27;30.42;;;9.57;;
24517;SDS011;12678;51.336;12.406;2023-05-27T04:01:54;13.95;;;4.82;;
24517;SDS011;12678;51.336;12.406;2023-05-27T04:04:19;10.57;;;3.75;;
24517;SDS011;12678;51.336;12.406;2023-05-27T04:06:45;15.77;;;4.85;;
24517;SDS011;12678;51.336;12.406;2023-05-27T04:09:11;11.48;;;4.43;;
24517;SDS011;12678;51.336;12.406;2023-05-27T04:11:38;11.73;;;4.00;;
24517;SDS011;12678;51.336;12.406;2023-05-27T04:14:04;13.35;;;4.45;;
24517;SDS011;12678;51.336;12.406;2023-05-27T04:16:31;10.50;;;3.28;;
24517;SDS011;12678;51.336;12.406;2023-05-27T04:18:58;7.18;;;3.10;;
24517;SDS011;12678;51.336;12.406;2023-05-27T04:21:25;11.25;;;4.13;;
24517;SDS011;12678;51.336;12.406;2023-05-27T04:23:50;10.27;;;3.88;;
24517;SDS011;12678;51.336;12.406;2023-05-27T04:26:16;15.50;;;4.18;;
24517;SDS011;12678;51.336;12.406;2023-05-27T04:28:42;7.38;;;3.13;;
24517;SDS011;12678;51.336;12.406;2023-05-27T04:31:10;15.13;;;4.57;;
24517;SDS011;12678;51.336;12.406;2023-05-27T04:33:37;9.57;;;4.30;;
24517;SDS011;12678;51.336;12.406;2023-05-27T04:36:04;14.40;;;3.30;;
24517;SDS011;12678;51.336;12.406;2023-05-27T04:38:31;11.40;;;3.40;;
24517;SDS011;12678;51.336;12.406;2023-05-27T04:40:56;13.50;;;3.47;;
24517;SDS011;12678;51.336;12.406;2023-05-27T04:43:23;12.52;;;3.40;;
24517;SDS011;12678;51.336;12.406;2023-05-27T04:45:51;13.80;;;4.40;;
24517;SDS011;12678;51.336;12.406;2023-05-27T04:48:17;15.18;;;4.05;;
24517;SDS011;12678;51.336;12.406;2023-05-27T04:50:44;10.43;;;3.40;;
24517;SDS011;12678;51.336;12.406;2023-05-27T04:53:10;7.72;;;3.50;;
24517;SDS011;12678;51.336;12.406;2023-05-27T04:55:36;5.53;;;2.92;;
24517;SDS011;12678;51.336;12.406;2023-05-27T04:58:04;15.60;;;3.50;;
24517;SDS011;12678;51.336;12.406;2023-05-27T05:00:30;14.00;;;3.55;;
24517;SDS011;12678;51.336;12.406;2023-05-27T05:03:21;12.65;;;3.83;;
24517;SDS011;12678;51.336;12.406;2023-05-27T05:05:48;13.10;;;3.67;;
24517;SDS011;12678;51.336;12.406;2023-05-27T05:08:16;11.88;;;3.80;;
24517;SDS011;12678;51.336;12.406;2023-05-27T05:10:41;12.48;;;3.55;;
24517;SDS011;12678;51.336;12.406;2023-05-27T05:13:07;12.68;;;2.90;;
24517;SDS011;12678;51.336;12.406;2023-05-27T05:15:33;8.77;;;3.22;;
24517;SDS011;12678;51.336;12.406;2023-05-27T05:17:59;13.40;;;4.05;;
24517;SDS011;12678;51.336;12.406;2023-05-27T05:20:25;9.80;;;4.13;;
24517;SDS011;12678;51.336;12.406;2023-05-27T05:22:50;10.63;;;3.22;;
24517;SDS011;12678;51.336;12.406;2023-05-27T05:25:16;10.88;;;3.30;;
24517;SDS011;12678;51.336;12.406;2023-05-27T05:27:41;7.93;;;3.20;;
24517;SDS011;12678;51.336;12.406;2023-05-27T05:30:07;16.25;;;3.55;;
24517;SDS011;12678;51.336;12.406;2023-05-27T05:32:33;9.52;;;3.10;;
24517;SDS011;12678;51.336;12.406;2023-05-27T05:34:59;14.90;;;4.05;;
24517;SDS011;12678;51.336;12.406;2023-05-27T05:37:24;12.25;;;3.88;;
24517;SDS011;12678;51.336;12.406;2023-05-27T05:39:50;7.50;;;3.38;;
24517;SDS011;12678;51.336;12.406;2023-05-27T05:42:16;8.30;;;3.50;;
24517;SDS011;12678;51.336;12.406;2023-05-27T05:44:42;14.30;;;3.33;;
24517;SDS011;12678;51.336;12.406;2023-05-27T05:47:08;17.33;;;3.75;;
24517;SDS011;12678;51.336;12.406;2023-05-27T05:49:34;10.93;;;3.45;;
24517;SDS011;12678;51.336;12.406;2023-05-27T05:52:00;14.85;;;3.15;;
24517;SDS011;12678;51.336;12.406;2023-05-27T05:54:28;9.35;;;3.47;;
24517;SDS011;12678;51.336;12.406;2023-05-27T05:56:54;11.85;;;2.90;;
24517;SDS011;12678;51.336;12.406;2023-05-27T05:59:20;10.18;;;3.50;;
24517;SDS011;12678;51.336;12.406;2023-05-27T06:01:45;10.98;;;3.53;;
24517;SDS011;12678;51.336;12.406;2023-05-27T06:04:11;9.40;;;3.50;;
24517;SDS011;12678;51.336;12.406;2023-05-27T06:06:39;10.18;;;3.13;;
24517;SDS011;12678;51.336;12.406;2023-05-27T06:09:05;14.95;;;3.30;;
24517;SDS011;12678;51.336;12.406;2023-05-27T06:11:30;9.40;;;3.67;;
24517;SDS011;12678;51.336;12.406;2023-05-27T06:13:56;14.25;;;3.05;;
24517;SDS011;12678;51.336;12.406;2023-05-27T06:16:22;10.40;;;4.03;;
24517;SDS011;12678;51.336;12.406;2023-05-27T06:18:47;10.77;;;3.72;;
24517;SDS011;12678;51.336;12.406;2023-05-27T06:21:13;13.85;;;3.33;;
24517;SDS011;12678;51.336;12.406;2023-05-27T06:23:39;16.05;;;3.70;;
24517;SDS011;12678;51.336;12.406;2023-05-27T06:26:04;11.23;;;3.83;;
24517;SDS011;12678;51.336;12.406;2023-05-27T06:28:32;12.80;;;3.42;;
24517;SDS011;12678;51.336;12.406;2023-05-27T06:31:01;10.95;;;2.88;;
24517;SDS011;12678;51.336;12.406;2023-05-27T06:33:29;9.95;;;2.65;;
24517;SDS011;12678;51.336;12.406;2023-05-27T06:35:55;7.32;;;3.25;;
24517;SDS011;12678;51.336;12.406;2023-05-27T06:38:22;15.50;;;3.88;;
24517;SDS011;12678;51.336;12.406;2023-05-27T06:40:48;13.68;;;3.55;;
24517;SDS011;12678;51.336;12.406;2023-05-27T06:43:14;8.00;;;2.53;;
24517;SDS011;12678;51.336;12.406;2023-05-27T06:45:40;9.05;;;2.70;;
24517;SDS011;12678;51.336;12.406;2023-05-27T06:48:06;14.25;;;2.83;;
24517;SDS011;12678;51.336;12.406;2023-05-27T06:50:32;6.13;;;2.50;;
24517;SDS011;12678;51.336;12.406;2023-05-27T06:52:59;13.40;;;2.90;;
24517;SDS011;12678;51.336;12.406;2023-05-27T06:55:25;10.70;;;2.65;;
24517;SDS011;12678;51.336;12.406;2023-05-27T06:57:51;6.55;;;2.35;;
24517;SDS011;12678;51.336;12.406;2023-05-27T07:00:17;10.27;;;2.60;;
24517;SDS011;12678;51.336;12.406;2023-05-27T07:02:43;9.93;;;2.03;;
24517;SDS011;12678;51.336;12.406;2023-05-27T07:05:09;14.07;;;2.67;;
24517;SDS011;12678;51.336;12.406;2023-05-27T07:07:34;6.50;;;2.15;;
24517;SDS011;12678;51.336;12.406;2023-05-27T07:10:00;7.05;;;2.38;;
24517;SDS011;12678;51.336;12.406;2023-05-27T07:12:26;9.88;;;3.17;;
24517;SDS011;12678;51.336;12.406;2023-05-27T07:14:51;5.13;;;1.90;;
24517;SDS011;12678;51.336;12.406;2023-05-27T07:17:17;5.72;;;1.92;;
24517;SDS011;12678;51.336;12.406;2023-05-27T07:19:43;14.68;;;2.72;;
24517;SDS011;12678;51.336;12.406;2023-05-27T07:22:08;9.95;;;2.35;;
24517;SDS011;12678;51.336;12.406;2023-05-27T07:24:34;10.82;;;2.30;;
24517;SDS011;12678;51.336;12.406;2023-05-27T07:27:01;8.05;;;2.10;;
24517;SDS011;12678;51.336;12.406;2023-05-27T07:29:27;9.93;;;2.85;;
24517;SDS011;12678;51.336;12.406;2023-05-27T07:31:53;4.35;;;2.20;;
24517;SDS011;12678;51.336;12.406;2023-05-27T07:34:19;6.97;;;1.77;;
24517;SDS011;12678;51.336;12.406;2023-05-27T07:36:46;4.53;;;1.67;;
24517;SDS011;12678;51.336;12.406;2023-05-27T07:39:13;6.22;;;1.73;;
24517;SDS011;12678;51.336;12.406;2023-05-27T07:41:38;6.38;;;1.60;;
24517;SDS011;12678;51.336;12.406;2023-05-27T07:44:04;11.75;;;1.83;;
24517;SDS011;12678;51.336;12.406;2023-05-27T07:46:30;7.70;;;2.10;;
24517;SDS011;12678;51.336;12.406;2023-05-27T07:48:57;4.35;;;2.28;;
24517;SDS011;12678;51.336;12.406;2023-05-27T07:51:23;13.52;;;2.33;;
24517;SDS011;12678;51.336;12.406;2023-05-27T07:53:48;9.98;;;1.90;;
24517;SDS011;12678;51.336;12.406;2023-05-27T07:56:15;10.70;;;2.70;;
24517;SDS011;12678;51.336;12.406;2023-05-27T07:58:41;6.13;;;1.73;;
24517;SDS011;12678;51.336;12.406;2023-05-27T08:01:08;9.52;;;1.98;;
24517;SDS011;12678;51.336;12.406;2023-05-27T08:03:33;5.97;;;1.65;;
24517;SDS011;12678;51.336;12.406;2023-05-27T08:05:59;14.48;;;2.75;;
24517;SDS011;12678;51.336;12.406;2023-05-27T08:08:24;8.10;;;2.00;;
24517;SDS011;12678;51.336;12.406;2023-05-27T08:10:50;9.32;;;2.15;;
24517;SDS011;12678;51.336;12.406;2023-05-27T08:13:16;5.25;;;1.88;;
24517;SDS011;12678;51.336;12.406;2023-05-27T08:15:42;7.25;;;2.13;;
24517;SDS011;12678;51.336;12.406;2023-05-27T08:18:08;6.45;;;1.88;;
24517;SDS011;12678;51.336;12.406;2023-05-27T08:20:33;9.43;;;2.00;;
24517;SDS011;12678;51.336;12.406;2023-05-27T08:22:59;7.18;;;2.40;;
24517;SDS011;12678;51.336;12.406;2023-05-27T08:25:25;5.30;;;2.40;;
24517;SDS011;12678;51.336;12.406;2023-05-27T08:27:52;7.05;;;2.17;;
24517;SDS011;12678;51.336;12.406;2023-05-27T08:30:18;8.93;;;1.83;;
24517;SDS011;12678;51.336;12.406;2023-05-27T08:32:44;8.35;;;2.10;;
24517;SDS011;12678;51.336;12.406;2023-05-27T08:35:11;7.72;;;2.38;;
24517;SDS011;12678;51.336;12.406;2023-05-27T08:37:38;7.07;;;1.70;;
24517;SDS011;12678;51.336;12.406;2023-05-27T08:40:06;12.52;;;2.83;;
24517;SDS011;12678;51.336;12.406;2023-05-27T08:42:35;9.02;;;2.60;;
24517;SDS011;12678;51.336;12.406;2023-05-27T08:45:01;5.43;;;1.70;;
24517;SDS011;12678;51.336;12.406;2023-05-27T08:47:30;6.47;;;1.67;;
24517;SDS011;12678;51.336;12.406;2023-05-27T08:49:56;6.80;;;2.00;;
24517;SDS011;12678;51.336;12.406;2023-05-27T08:52:26;11.77;;;2.20;;
24517;SDS011;12678;51.336;12.406;2023-05-27T08:54:53;9.82;;;2.40;;
24517;SDS011;12678;51.336;12.406;2023-05-27T08:57:21;10.77;;;2.45;;
24517;SDS011;12678;51.336;12.406;2023-05-27T08:59:51;11.43;;;1.95;;
24517;SDS011;12678;51.336;12.406;2023-05-27T09:02:17;8.10;;;2.55;;
24517;SDS011;12678;51.336;12.406;2023-05-27T09:04:44;6.82;;;2.00;;
24517;SDS011;12678;51.336;12.406;2023-05-27T09:07:11;14.55;;;2.20;;
24517;SDS011;12678;51.336;12.406;2023-05-27T09:09:40;6.93;;;2.40;;
24517;SDS011;12678;51.336;12.406;2023-05-27T09:12:07;9.38;;;2.30;;
24517;SDS011;12678;51.336;12.406;2023-05-27T09:14:38;5.05;;;1.80;;
24517;SDS011;12678;51.336;12.406;2023-05-27T09:17:07;9.52;;;2.67;;
24517;SDS011;12678;51.336;12.406;2023-05-27T09:19:34;4.50;;;2.15;;
24517;SDS011;12678;51.336;12.406;2023-05-27T09:22:00;4.65;;;1.65;;
24517;SDS011;12678;51.336;12.406;2023-05-27T09:24:26;4.80;;;2.10;;
24517;SDS011;12678;51.336;12.406;2023-05-27T09:26:55;6.70;;;2.05;;
24517;SDS011;12678;51.336;12.406;2023-05-27T09:29:24;7.10;;;1.95;;
24517;SDS011;12678;51.336;12.406;2023-05-27T09:31:53;4.80;;;2.03;;
24517;SDS011;12678;51.336;12.406;2023-05-27T09:34:20;8.80;;;2.17;;
24517;SDS011;12678;51.336;12.406;2023-05-27T09:36:47;6.28;;;2.10;;
24517;SDS011;12678;51.336;12.406;2023-05-27T09:39:15;10.75;;;2.20;;
24517;SDS011;12678;51.336;12.406;2023-05-27T09:41:42;8.20;;;2.38;;
24517;SDS011;12678;51.336;12.406;2023-05-27T09:44:08;4.97;;;1.95;;
24517;SDS011;12678;51.336;12.406;2023-05-27T09:46:35;8.63;;;2.30;;
24517;SDS011;12678;51.336;12.406;2023-05-27T09:49:01;5.57;;;1.95;;
24517;SDS011;12678;51.336;12.406;2023-05-27T09:51:31;7.15;;;2.10;;
24517;SDS011;12678;51.336;12.406;2023-05-27T09:54:00;7.32;;;2.25;;
24517;SDS011;12678;51.336;12.406;2023-05-27T09:56:27;4.35;;;1.83;;
24517;SDS011;12678;51.336;12.406;2023-05-27T09:58:54;10.65;;;1.92;;
24517;SDS011;12678;51.336;12.406;2023-05-27T10:01:28;4.32;;;1.63;;
24517;SDS011;12678;51.336;12.406;2023-05-27T10:03:54;6.20;;;2.17;;
24517;SDS011;12678;51.336;12.406;2023-05-27T10:06:23;3.72;;;1.95;;
24517;SDS011;12678;51.336;12.406;2023-05-27T10:08:51;6.38;;;1.80;;
24517;SDS011;12678;51.336;12.406;2023-05-27T10:11:23;8.73;;;1.92;;
24517;SDS011;12678;51.336;12.406;2023-05-27T10:13:51;13.68;;;2.20;;
24517;SDS011;12678;51.336;12.406;2023-05-27T10:16:22;5.38;;;2.05;;
24517;SDS011;12678;51.336;12.406;2023-05-27T10:18:48;6.97;;;2.15;;
24517;SDS011;12678;51.336;12.406;2023-05-27T10:21:22;5.22;;;1.85;;
24517;SDS011;12678;51.336;12.406;2023-05-27T10:24:01;7.88;;;2.58;;
24517;SDS011;12678;51.336;12.406;2023-05-27T10:26:34;11.00;;;2.08;;
24517;SDS011;12678;51.336;12.406;2023-05-27T10:29:08;11.75;;;2.35;;
24517;SDS011;12678;51.336;12.406;2023-05-27T10:31:34;8.73;;;2.10;;
24517;SDS011;12678;51.336;12.406;2023-05-27T10:34:04;6.32;;;2.10;;
24517;SDS011;12678;51.336;12.406;2023-05-27T10:36:33;4.55;;;1.77;;
24517;SDS011;12678;51.336;12.406;2023-05-27T10:39:00;5.30;;;2.28;;
24517;SDS011;12678;51.336;12.406;2023-05-27T10:41:38;5.88;;;1.83;;
24517;SDS011;12678;51.336;12.406;2023-05-27T10:44:08;4.75;;;2.15;;
24517;SDS011;12678;51.336;12.406;2023-05-27T10:46:41;3.90;;;1.80;;
24517;SDS011;12678;51.336;12.406;2023-05-27T10:49:12;3.40;;;1.63;;
24517;SDS011;12678;51.336;12.406;2023-05-27T10:51:40;6.47;;;1.90;;
24517;SDS011;12678;51.336;12.406;2023-05-27T10:54:07;7.45;;;1.83;;
24517;SDS011;12678;51.336;12.406;2023-05-27T10:56:34;5.13;;;2.22;;
24517;SDS011;12678;51.336;12.406;2023-05-27T10:59:00;5.60;;;2.10;;
24517;SDS011;12678;51.336;12.406;2023-05-27T11:01:28;8.13;;;2.28;;
24517;SDS011;12678;51.336;12.406;2023-05-27T11:03:57;9.73;;;2.38;;
24517;SDS011;12678;51.336;12.406;2023-05-27T11:06:23;5.10;;;1.83;;
24517;SDS011;12678;51.336;12.406;2023-05-27T11:08:49;3.72;;;1.60;;
24517;SDS011;12678;51.336;12.406;2023-05-27T11:11:15;5.22;;;2.20;;
24517;SDS011;12678;51.336;12.406;2023-05-27T11:13:44;5.68;;;2.00;;
24517;SDS011;12678;51.336;12.406;2023-05-27T11:16:11;6.57;;;2.22;;
24517;SDS011;12678;51.336;12.406;2023-05-27T11:18:38;15.30;;;2.63;;
24517;SDS011;12678;51.336;12.406;2023-05-27T11:21:06;6.53;;;2.00;;
24517;SDS011;12678;51.336;12.406;2023-05-27T11:23:33;7.13;;;1.77;;
24517;SDS011;12678;51.336;12.406;2023-05-27T11:26:15;7.93;;;2.38;;
24517;SDS011;12678;51.336;12.406;2023-05-27T11:28:58;4.43;;;1.98;;
24517;SDS011;12678;51.336;12.406;2023-05-27T11:31:27;3.90;;;1.75;;
24517;SDS011;12678;51.336;12.406;2023-05-27T11:33:54;10.60;;;2.60;;
24517;SDS011;12678;51.336;12.406;2023-05-27T11:36:20;5.47;;;1.98;;
24517;SDS011;12678;51.336;12.406;2023-05-27T11:41:13;6.60;;;1.90;;
24517;SDS011;12678;51.336;12.406;2023-05-27T11:43:48;10.63;;;3.33;;
24517;SDS011;12678;51.336;12.406;2023-05-27T11:46:20;4.47;;;2.25;;
24517;SDS011;12678;51.336;12.406;2023-05-27T11:48:46;5.47;;;2.30;;
24517;SDS011;12678;51.336;12.406;2023-05-27T11:51:13;8.10;;;2.28;;
24517;SDS011;12678;51.336;12.406;2023-05-27T11:53:40;12.30;;;2.47;;
24517;SDS011;12678;51.336;12.406;2023-05-27T11:56:09;7.65;;;1.92;;
24517;SDS011;12678;51.336;12.406;2023-05-27T11:58:35;7.18;;;2.22;;
24517;SDS011;12678;51.336;12.406;2023-05-27T12:01:02;11.02;;;2.47;;
24517;SDS011;12678;51.336;12.406;2023-05-27T12:03:29;11.57;;;2.88;;
24517;SDS011;12678;51.336;12.406;2023-05-27T12:05:54;7.20;;;2.22;;
24517;SDS011;12678;51.336;12.406;2023-05-27T12:08:20;2.65;;;1.70;;
24517;SDS011;12678;51.336;12.406;2023-05-27T12:10:46;5.97;;;2.42;;
24517;SDS011;12678;51.336;12.406;2023-05-27T12:13:15;8.95;;;2.50;;
24517;SDS011;12678;51.336;12.406;2023-05-27T12:15:40;5.30;;;1.85;;
24517;SDS011;12678;51.336;12.406;2023-05-27T12:18:06;3.75;;;1.80;;
24517;SDS011;12678;51.336;12.406;2023-05-27T12:20:32;5.78;;;2.22;;
24517;SDS011;12678;51.336;12.406;2023-05-27T12:22:58;5.15;;;2.10;;
24517;SDS011;12678;51.336;12.406;2023-05-27T12:25:24;4.40;;;2.33;;
24517;SDS011;12678;51.336;12.406;2023-05-27T12:27:50;8.88;;;2.20;;
24517;SDS011;12678;51.336;12.406;2023-05-27T12:30:16;4.05;;;1.73;;
24517;SDS011;12678;51.336;12.406;2023-05-27T12:32:41;7.22;;;2.05;;
24517;SDS011;12678;51.336;12.406;2023-05-27T12:35:07;6.57;;;1.92;;
24517;SDS011;12678;51.336;12.406;2023-05-27T12:37:33;7.70;;;2.35;;
24517;SDS011;12678;51.336;12.406;2023-05-27T12:39:59;10.43;;;1.60;;
24517;SDS011;12678;51.336;12.406;2023-05-27T12:42:24;4.53;;;2.28;;
24517;SDS011;12678;51.336;12.406;2023-05-27T12:44:50;6.07;;;2.10;;
24517;SDS011;12678;51.336;12.406;2023-05-27T12:47:15;5.68;;;2.35;;
24517;SDS011;12678;51.336;12.406;2023-05-27T12:49:41;3.92;;;1.80;;
24517;SDS011;12678;51.336;12.406;2023-05-27T12:52:07;4.18;;;2.10;;
24517;SDS011;12678;51.336;12.406;2023-05-27T12:54:33;6.55;;;1.90;;
24517;SDS011;12678;51.336;12.406;2023-05-27T12:56:59;4.97;;;2.08;;
24517;SDS011;12678;51.336;12.406;2023-05-27T12:59:29;5.45;;;2.22;;
24517;SDS011;12678;51.336;12.406;2023-05-27T13:01:56;4.20;;;1.88;;
24517;SDS011;12678;51.336;12.406;2023-05-27T13:04:22;8.32;;;1.98;;
24517;SDS011;12678;51.336;12.406;2023-05-27T13:06:48;6.45;;;2.30;;
24517;SDS011;12678;51.336;12.406;2023-05-27T13:09:13;2.83;;;1.60;;
24517;SDS011;12678;51.336;12.406;2023-05-27T13:11:39;5.78;;;2.20;;
24517;SDS011;12678;51.336;12.406;2023-05-27T13:14:05;5.47;;;2.00;;
24517;SDS011;12678;51.336;12.406;2023-05-27T13:16:31;2.80;;;1.80;;
24517;SDS011;12678;51.336;12.406;2023-05-27T13:18:57;3.97;;;1.65;;
24517;SDS011;12678;51.336;12.406;2023-05-27T13:21:22;6.80;;;2.50;;
24517;SDS011;12678;51.336;12.406;2023-05-27T13:23:48;3.42;;;1.58;;
24517;SDS011;12678;51.336;12.406;2023-05-27T13:26:14;4.88;;;1.80;;
24517;SDS011;12678;51.336;12.406;2023-05-27T13:28:40;4.80;;;2.05;;
24517;SDS011;12678;51.336;12.406;2023-05-27T13:31:06;5.07;;;2.30;;
24517;SDS011;12678;51.336;12.406;2023-05-27T13:33:32;6.20;;;1.90;;
24517;SDS011;12678;51.336;12.406;2023-05-27T13:35:58;7.03;;;2.13;;
24517;SDS011;12678;51.336;12.406;2023-05-27T13:38:23;7.72;;;2.25;;
24517;SDS011;12678;51.336;12.406;2023-05-27T13:40:49;6.40;;;2.28;;
24517;SDS011;12678;51.336;12.406;2023-05-27T13:43:15;3.42;;;1.75;;
24517;SDS011;12678;51.336;12.406;2023-05-27T13:45:41;7.22;;;1.98;;
24517;SDS011;12678;51.336;12.406;2023-05-27T13:48:07;7.03;;;1.92;;
24517;SDS011;12678;51.336;12.406;2023-05-27T13:50:33;5.00;;;1.85;;
24517;SDS011;12678;51.336;12.406;2023-05-27T13:53:00;7.03;;;2.13;;
24517;SDS011;12678;51.336;12.406;2023-05-27T13:55:26;4.82;;;1.95;;
24517;SDS011;12678;51.336;12.406;2023-05-27T13:57:51;5.60;;;2.30;;
24517;SDS011;12678;51.336;12.406;2023-05-27T14:00:17;3.15;;;1.98;;
24517;SDS011;12678;51.336;12.406;2023-05-27T14:02:43;6.65;;;2.10;;
24517;SDS011;12678;51.336;12.406;2023-05-27T14:05:10;3.13;;;1.42;;
24517;SDS011;12678;51.336;12.406;2023-05-27T14:07:39;6.80;;;2.08;;
24517;SDS011;12678;51.336;12.406;2023-05-27T14:10:09;2.63;;;1.80;;
24517;SDS011;12678;51.336;12.406;2023-05-27T14:12:35;8.13;;;2.25;;
24517;SDS011;12678;51.336;12.406;2023-05-27T14:15:01;6.20;;;2.00;;
24517;SDS011;12678;51.336;12.406;2023-05-27T14:17:27;6.18;;;2.08;;
24517;SDS011;12678;51.336;12.406;2023-05-27T14:19:53;5.03;;;2.08;;
24517;SDS011;12678;51.336;12.406;2023-05-27T14:22:19;17.95;;;2.78;;
24517;SDS011;12678;51.336;12.406;2023-05-27T14:24:45;4.45;;;1.65;;
24517;SDS011;12678;51.336;12.406;2023-05-27T14:27:11;4.88;;;2.55;;
24517;SDS011;12678;51.336;12.406;2023-05-27T14:29:37;4.72;;;1.85;;
24517;SDS011;12678;51.336;12.406;2023-05-27T14:32:02;4.30;;;2.20;;
24517;SDS011;12678;51.336;12.406;2023-05-27T14:34:28;3.85;;;1.67;;
24517;SDS011;12678;51.336;12.406;2023-05-27T14:36:54;4.18;;;1.90;;
24517;SDS011;12678;51.336;12.406;2023-05-27T14:39:19;4.65;;;1.75;;
24517;SDS011;12678;51.336;12.406;2023-05-27T14:41:45;3.72;;;2.00;;